American Islander — WDC5089 — position and weather

sailwx.info

Track history (hours):
 
Tides and Currents Weather Stations Pressure Air Temp Water Temp Dewpoint Dewpoint Depression Visibility Wind Speed Wind Dir Waves Ship Positions

American Islander

Owner: AMERICAN WORKBOATS, INC., HONOLULU, HI. More information available from US FCC via Universal Licensing System and Coast Guard Vessel Documentation Center.

Last reported at 2015-Jul-26 08:34 UTC. Time now 2015-Aug-01 22:15 UTC.
Position N 33°44' W 118°16'.

Length 31 m; draft 3 m.

Type: Ship. MMSI: 367035570.

Date/timePositionNaut miles runAvg speedWind from/ knotsBaromVisibWave heightAir tempDewpointWater temp
2015-Jul-26 08:34N 33°44' W 118°16'6 6.3
2015-Jul-26 07:33N 33°43' W 118°23'10 9.8
2015-Jul-26 06:33N 33°49' W 118°33'1110.1
2015-Jul-26 05:29N 33°57' W 118°41'6 3.0
2015-Jul-26 03:22N 34°01' W 118°47'13 6.0
2015-Jul-26 01:12N 33°53' W 118°35'10 9.3
2015-Jul-26 00:05N 33°45' W 118°26'5 8.9
2015-Jul-25 23:33N 33°43' W 118°22'5 4.9
2015-Jul-25 22:31N 33°44' W 118°16'0 0.0
2015-Jul-25 21:32N 33°44' W 118°16'0 0.0
2015-Jul-25 20:33N 33°44' W 118°16'0 0.0
2015-Jul-25 19:33N 33°44' W 118°16'0 0.0
2015-Jul-25 18:33N 33°44' W 118°16'0 0.0
2015-Jul-25 17:33N 33°44' W 118°16'0 0.0
2015-Jul-25 16:14N 33°44' W 118°16'0 0.0
2015-Jul-25 15:30N 33°44' W 118°16'0 0.0
2015-Jul-25 14:33N 33°44' W 118°16'0 0.0
2015-Jul-25 13:33N 33°44' W 118°16'0 0.0
2015-Jul-25 12:33N 33°44' W 118°16'0 0.0
2015-Jul-25 11:33N 33°44' W 118°16'0 0.0
2015-Jul-25 10:33N 33°44' W 118°16'0 0.0
2015-Jul-25 09:33N 33°44' W 118°16'0 0.0
2015-Jul-25 08:33N 33°44' W 118°16'0 0.0
2015-Jul-25 07:33N 33°44' W 118°16'0 0.0
2015-Jul-25 06:33N 33°44' W 118°16'0 0.0
2015-Jul-25 05:33N 33°44' W 118°16'0 0.0
2015-Jul-25 04:30N 33°44' W 118°16'0 0.0
2015-Jul-25 03:33N 33°44' W 118°16'0 0.0
2015-Jul-25 02:33N 33°44' W 118°16'0 0.0
2015-Jul-25 01:33N 33°44' W 118°16'0 0.0
2015-Jul-25 00:33N 33°44' W 118°16'0 0.0
2015-Jul-24 23:33N 33°44' W 118°16'0 0.0
2015-Jul-24 22:33N 33°44' W 118°16'0 0.0
2015-Jul-24 21:33N 33°44' W 118°16'0 0.0
2015-Jul-24 16:26N 33°44' W 118°16'0 0.0
2015-Jul-24 08:05N 33°44' W 118°16'0 0.0
2015-Jul-24 07:33N 33°44' W 118°16'0 0.0
2015-Jul-22 22:17N 33°44' W 118°16'0 0.0
2015-Jul-22 13:32N 33°44' W 118°16'0 0.0
2015-Jul-22 09:19N 33°44' W 118°16'0 0.0
2015-Jul-22 05:26N 33°44' W 118°16'  
Track history (hours):
 
Tides and Currents Weather Stations Pressure Air Temp Water Temp Dewpoint Dewpoint Depression Visibility Wind Speed Wind Dir Waves Ship Positions

American Islander

Owner: AMERICAN WORKBOATS, INC., HONOLULU, HI. More information available from US FCC via Universal Licensing System and Coast Guard Vessel Documentation Center.

Last reported at 2015-Jul-26 08:34 UTC. Time now 2015-Aug-01 22:15 UTC.
Position N 33°44' W 118°16'.

Length 31 m; draft 3 m.

Type: Ship. MMSI: 367035570.

Date/timePositionNaut miles runAvg speedWind from/ knotsBaromVisibWave heightAir tempDewpointWater temp
2015-Jul-26 08:34N 33°44' W 118°16'6 6.3
2015-Jul-26 07:33N 33°43' W 118°23'10 9.8
2015-Jul-26 06:33N 33°49' W 118°33'1110.1
2015-Jul-26 05:29N 33°57' W 118°41'6 3.0
2015-Jul-26 03:22N 34°01' W 118°47'13 6.0
2015-Jul-26 01:12N 33°53' W 118°35'10 9.3
2015-Jul-26 00:05N 33°45' W 118°26'5 8.9
2015-Jul-25 23:33N 33°43' W 118°22'5 4.9
2015-Jul-25 22:31N 33°44' W 118°16'0 0.0
2015-Jul-25 21:32N 33°44' W 118°16'0 0.0
2015-Jul-25 20:33N 33°44' W 118°16'0 0.0
2015-Jul-25 19:33N 33°44' W 118°16'0 0.0
2015-Jul-25 18:33N 33°44' W 118°16'0 0.0
2015-Jul-25 17:33N 33°44' W 118°16'0 0.0
2015-Jul-25 16:14N 33°44' W 118°16'0 0.0
2015-Jul-25 15:30N 33°44' W 118°16'0 0.0
2015-Jul-25 14:33N 33°44' W 118°16'0 0.0
2015-Jul-25 13:33N 33°44' W 118°16'0 0.0
2015-Jul-25 12:33N 33°44' W 118°16'0 0.0
2015-Jul-25 11:33N 33°44' W 118°16'0 0.0
2015-Jul-25 10:33N 33°44' W 118°16'0 0.0
2015-Jul-25 09:33N 33°44' W 118°16'0 0.0
2015-Jul-25 08:33N 33°44' W 118°16'0 0.0
2015-Jul-25 07:33N 33°44' W 118°16'0 0.0
2015-Jul-25 06:33N 33°44' W 118°16'0 0.0
2015-Jul-25 05:33N 33°44' W 118°16'0 0.0
2015-Jul-25 04:30N 33°44' W 118°16'0 0.0
2015-Jul-25 03:33N 33°44' W 118°16'0 0.0
2015-Jul-25 02:33N 33°44' W 118°16'0 0.0
2015-Jul-25 01:33N 33°44' W 118°16'0 0.0
2015-Jul-25 00:33N 33°44' W 118°16'0 0.0
2015-Jul-24 23:33N 33°44' W 118°16'0 0.0
2015-Jul-24 22:33N 33°44' W 118°16'0 0.0
2015-Jul-24 21:33N 33°44' W 118°16'0 0.0
2015-Jul-24 16:26N 33°44' W 118°16'0 0.0
2015-Jul-24 08:05N 33°44' W 118°16'0 0.0
2015-Jul-24 07:33N 33°44' W 118°16'0 0.0
2015-Jul-22 22:17N 33°44' W 118°16'0 0.0
2015-Jul-22 13:32N 33°44' W 118°16'0 0.0
2015-Jul-22 09:19N 33°44' W 118°16'0 0.0
2015-Jul-22 05:26N 33°44' W 118°16'  

Dump ship's entire track history